Time;durP1;ratioP1;P1;durP2;ratioP2;P2;SDS_P1;SDS_P2;PMS_P1;PMS_P2;Temp;Humidity;BMP_temperature;BMP_pressure;BME280_temperature;BME280_humidity;BME280_pressure;Samples;Min_cycle;Max_cycle;Signal;HPM_P1;HPM_P2
2022/04/01 00:02:12;;;;;;;4.97;4.13;;;15.60;47.50;;;;;;5087806;28;48902;-16
2022/04/01 00:04:39;;;;;;;5.40;4.35;;;15.60;47.40;;;;;;5087831;28;46908;-16
2022/04/01 00:07:06;;;;;;;5.05;4.00;;;15.60;47.40;;;;;;5087828;28;46927;-16
2022/04/01 00:09:33;;;;;;;3.78;3.33;;;15.60;47.40;;;;;;5088068;28;47067;-16
2022/04/01 00:11:59;;;;;;;4.18;3.70;;;15.60;47.40;;;;;;5087396;28;48662;-16
2022/04/01 00:14:26;;;;;;;3.80;3.38;;;15.50;47.40;;;;;;5087492;28;46830;-24
2022/04/01 00:16:54;;;;;;;3.97;3.50;;;15.50;47.40;;;;;;5087778;28;46819;-24
2022/04/01 00:19:21;;;;;;;4.72;3.75;;;15.50;47.50;;;;;;5087594;28;46826;-24
2022/04/01 00:21:47;;;;;;;4.35;3.75;;;15.50;47.50;;;;;;5087592;28;48346;-24
2022/04/01 00:24:14;;;;;;;5.05;3.50;;;15.50;47.60;;;;;;5087167;28;46990;-24
2022/04/01 00:26:41;;;;;;;3.88;3.47;;;15.50;47.60;;;;;;5087735;28;46826;-17
2022/04/01 00:29:15;;;;;;;4.53;3.53;;;15.50;47.60;;;;;;5087274;28;47290;-16
2022/04/01 00:31:42;;;;;;;3.15;2.85;;;15.50;47.60;;;;;;5087145;28;49142;-23
2022/04/01 00:34:16;;;;;;;3.78;3.45;;;15.50;47.60;;;;;;5087391;28;47165;-24
2022/04/01 00:36:43;;;;;;;4.53;3.47;;;15.40;47.60;;;;;;5087413;28;46790;-24
2022/04/01 00:39:10;;;;;;;4.35;3.50;;;15.40;47.60;;;;;;5087177;28;46778;-24
2022/04/01 00:41:37;;;;;;;3.85;3.25;;;15.40;47.70;;;;;;5087018;28;47062;-23
2022/04/01 00:44:14;;;;;;;3.35;3.05;;;15.40;47.70;;;;;;5086933;28;47556;-24
2022/04/01 00:46:41;;;;;;;3.72;3.30;;;15.40;47.70;;;;;;5087368;28;46900;-24
2022/04/01 00:49:08;;;;;;;3.88;3.05;;;15.40;47.70;;;;;;5087027;28;47289;-16
2022/04/01 00:51:37;;;;;;;3.05;2.75;;;15.30;47.70;;;;;;5086861;28;48027;-24
2022/04/01 00:54:05;;;;;;;3.17;2.88;;;15.30;47.70;;;;;;5086575;28;46952;-16
2022/04/01 00:56:32;;;;;;;2.90;2.70;;;15.30;47.60;;;;;;5086709;27;46961;-24
2022/04/01 00:58:59;;;;;;;2.95;2.72;;;15.30;47.70;;;;;;5086399;28;47050;-16
2022/04/01 01:01:26;;;;;;;2.80;2.60;;;15.30;47.70;;;;;;5086988;28;47912;-25
2022/04/01 01:03:52;;;;;;;2.95;2.65;;;15.30;47.70;;;;;;5086460;28;47014;-24
2022/04/01 01:06:19;;;;;;;2.95;2.55;;;15.20;47.70;;;;;;5086999;28;46926;-24
2022/04/01 01:08:48;;;;;;;2.55;2.30;;;15.20;47.70;;;;;;5086919;28;46817;-24
2022/04/01 01:11:15;;;;;;;2.92;2.63;;;15.20;47.60;;;;;;5086839;28;48097;-24
2022/04/01 01:13:41;;;;;;;3.42;2.85;;;15.20;47.60;;;;;;5086303;28;47598;-17
2022/04/01 01:16:09;;;;;;;2.95;2.70;;;15.20;47.60;;;;;;5086618;28;46993;-17
2022/04/01 01:18:36;;;;;;;2.85;2.45;;;15.20;47.60;;;;;;5086607;28;46937;-24
2022/04/01 01:21:04;;;;;;;2.65;2.45;;;15.20;47.60;;;;;;5086519;28;49298;-24
2022/04/01 01:23:32;;;;;;;2.92;2.55;;;15.20;47.60;;;;;;5086479;28;47100;-24
2022/04/01 01:26:00;;;;;;;3.08;2.60;;;15.20;47.50;;;;;;5086528;28;46861;-16
2022/04/01 01:28:27;;;;;;;2.45;2.25;;;15.20;47.60;;;;;;5086511;28;46857;-24
2022/04/01 01:30:54;;;;;;;2.67;2.47;;;15.20;47.60;;;;;;5086541;28;48094;-16
2022/04/01 01:33:21;;;;;;;2.80;2.60;;;15.20;47.50;;;;;;5085943;28;46817;-17
2022/04/01 01:35:48;;;;;;;3.15;2.60;;;15.10;47.50;;;;;;5086605;28;46891;-24
2022/04/01 01:38:17;;;;;;;2.45;2.25;;;15.10;47.50;;;;;;5086310;28;46896;-24
2022/04/01 01:40:44;;;;;;;2.42;2.05;;;15.10;47.50;;;;;;5086038;28;48296;-24
2022/04/01 01:43:13;;;;;;;2.53;2.33;;;15.10;47.60;;;;;;5086095;28;47071;-16
2022/04/01 01:45:40;;;;;;;2.33;2.13;;;15.10;47.50;;;;;;5086551;28;47016;-16
2022/04/01 01:48:07;;;;;;;2.42;2.22;;;15.10;47.60;;;;;;5085975;28;47286;-16
2022/04/01 01:56:04;;;;;;;2.05;1.88;;;15.10;47.60;;;;;;5083430;28;46912;-24
2022/04/01 01:58:34;;;;;;;2.40;2.20;;;15.00;47.60;;;;;;5086164;28;46920;-25
2022/04/01 02:01:00;;;;;;;1.92;1.83;;;15.00;47.60;;;;;;5086118;28;46910;-16
2022/04/01 02:03:27;;;;;;;2.53;2.22;;;15.00;47.50;;;;;;5085491;28;46881;-15
2022/04/01 02:05:54;;;;;;;2.20;1.90;;;15.00;47.60;;;;;;5086188;28;46891;-17
2022/04/01 02:08:20;;;;;;;1.98;1.88;;;15.00;47.50;;;;;;5085261;28;46917;-16
2022/04/01 02:10:47;;;;;;;2.05;1.88;;;15.00;47.50;;;;;;5085620;28;47901;-16
2022/04/01 02:13:14;;;;;;;2.40;2.20;;;15.00;47.40;;;;;;5085542;28;47651;-24
2022/04/01 02:15:42;;;;;;;2.60;2.40;;;15.00;47.50;;;;;;5086057;28;46878;-24
2022/04/01 02:18:10;;;;;;;2.42;2.17;;;15.00;47.50;;;;;;5085991;28;47384;-24
2022/04/01 02:20:37;;;;;;;2.63;2.38;;;15.00;47.50;;;;;;5085789;28;46871;-16
2022/04/01 02:23:04;;;;;;;2.20;2.00;;;14.90;47.40;;;;;;5085416;28;46994;-16
2022/04/01 02:25:31;;;;;;;3.45;2.47;;;14.90;47.40;;;;;;5085520;28;46893;-16
2022/04/01 02:27:58;;;;;;;2.45;1.98;;;14.90;47.40;;;;;;5085899;28;47081;-18
2022/04/01 02:30:25;;;;;;;2.17;2.00;;;14.90;47.40;;;;;;5085337;28;48773;-17
2022/04/01 02:32:53;;;;;;;2.40;2.20;;;14.90;47.50;;;;;;5085461;28;46919;-16
2022/04/01 02:35:20;;;;;;;2.05;1.88;;;14.90;47.50;;;;;;5085763;28;46845;-16
2022/04/01 02:37:47;;;;;;;3.20;2.38;;;14.80;47.50;;;;;;5085667;28;47267;-24
2022/04/01 02:40:14;;;;;;;2.47;2.20;;;14.90;47.50;;;;;;5085261;28;49141;-17
2022/04/01 02:42:41;;;;;;;2.30;2.10;;;14.90;47.40;;;;;;5085021;28;46875;-16
2022/04/01 02:45:09;;;;;;;2.25;2.05;;;14.90;47.40;;;;;;5085728;28;47018;-17
2022/04/01 02:47:36;;;;;;;2.35;2.13;;;14.80;47.40;;;;;;5085486;28;46950;-16
2022/04/01 02:50:06;;;;;;;2.10;1.90;;;14.80;47.40;;;;;;5085297;28;49151;-17
2022/04/01 02:52:32;;;;;;;1.90;1.80;;;14.80;47.40;;;;;;5084810;28;46892;-24
2022/04/01 02:54:59;;;;;;;2.20;2.00;;;14.80;47.40;;;;;;5085281;28;46952;-16
2022/04/01 02:57:26;;;;;;;1.98;1.88;;;14.80;47.40;;;;;;5085116;28;46936;-16
2022/04/01 02:59:53;;;;;;;2.03;1.90;;;14.80;47.40;;;;;;5085261;28;47875;-17
2022/04/01 03:02:20;;;;;;;1.83;1.73;;;14.80;47.30;;;;;;5085082;28;46813;-17
2022/04/01 03:04:47;;;;;;;2.20;2.00;;;14.80;47.30;;;;;;5085041;28;46912;-17
2022/04/01 03:07:15;;;;;;;2.10;1.90;;;14.80;47.30;;;;;;5085511;28;47310;-16
2022/04/01 03:09:42;;;;;;;1.83;1.73;;;14.80;47.30;;;;;;5084862;28;48015;-25
2022/04/01 03:12:09;;;;;;;2.22;2.03;;;14.80;47.30;;;;;;5085067;28;46827;-25
2022/04/01 03:14:36;;;;;;;2.08;1.88;;;14.80;47.20;;;;;;5085104;28;47032;-24
2022/04/01 03:17:03;;;;;;;1.95;1.83;;;14.70;47.20;;;;;;5084974;28;47489;-16
2022/04/01 03:19:30;;;;;;;2.22;2.03;;;14.70;47.20;;;;;;5085199;28;48091;-16
2022/04/01 03:21:57;;;;;;;2.40;2.00;;;14.70;47.20;;;;;;5088066;28;47446;-17
2022/04/01 03:24:25;;;;;;;1.92;1.73;;;14.70;47.10;;;;;;5088442;28;46907;-24
2022/04/01 03:26:52;;;;;;;2.20;2.00;;;14.70;47.10;;;;;;5088758;28;47247;-24
2022/04/01 03:29:19;;;;;;;1.73;1.63;;;14.70;47.10;;;;;;5088296;28;47979;-24
2022/04/01 03:31:47;;;;;;;3.28;2.15;;;14.70;47.10;;;;;;5088175;28;47502;-24
2022/04/01 03:34:14;;;;;;;2.15;1.95;;;14.70;47.10;;;;;;5088568;28;46908;-24
2022/04/01 03:36:41;;;;;;;1.77;1.60;;;14.70;47.10;;;;;;5088290;28;46992;-24
2022/04/01 03:39:07;;;;;;;1.95;1.75;;;14.70;47.00;;;;;;5087993;28;48961;-16
2022/04/01 03:41:35;;;;;;;2.10;1.90;;;14.70;47.10;;;;;;5088207;28;46838;-16
2022/04/01 03:44:02;;;;;;;1.80;1.70;;;14.70;47.00;;;;;;5087731;28;46897;-16
2022/04/01 03:46:32;;;;;;;1.50;1.40;;;14.70;47.00;;;;;;5088255;28;47008;-16
2022/04/01 03:49:02;;;;;;;2.35;1.70;;;14.70;47.00;;;;;;5088287;28;48213;-17
2022/04/01 03:51:29;;;;;;;2.22;1.85;;;14.70;46.90;;;;;;5087887;28;46965;-24
2022/04/01 03:53:57;;;;;;;1.50;1.40;;;14.70;46.90;;;;;;5087303;28;47047;-24
2022/04/01 03:56:27;;;;;;;1.65;1.55;;;14.70;47.00;;;;;;5088040;28;46923;-24
2022/04/01 03:58:55;;;;;;;1.70;1.60;;;14.60;46.90;;;;;;5087685;28;48084;-17
2022/04/01 04:01:22;;;;;;;1.88;1.77;;;14.60;46.90;;;;;;5088009;28;47408;-15
2022/04/01 04:03:50;;;;;;;2.10;1.75;;;14.60;46.90;;;;;;5087773;28;46904;-24
2022/04/01 04:06:17;;;;;;;2.05;1.90;;;14.60;46.90;;;;;;5088161;28;47317;-24
2022/04/01 04:08:44;;;;;;;1.77;1.67;;;14.60;47.00;;;;;;5087441;28;49259;-25
2022/04/01 04:11:11;;;;;;;2.20;2.00;;;14.60;46.90;;;;;;5087929;28;46987;-24
2022/04/01 04:13:38;;;;;;;1.58;1.48;;;14.60;46.90;;;;;;5087457;28;46944;-15
2022/04/01 04:16:10;;;;;;;1.70;1.60;;;14.60;46.80;;;;;;5088091;28;46884;-24
2022/04/01 04:18:42;;;;;;;1.80;1.70;;;14.60;46.80;;;;;;5087242;28;48101;-24
2022/04/01 04:21:12;;;;;;;1.67;1.58;;;14.50;46.80;;;;;;5087765;28;46884;-24
2022/04/01 04:23:43;;;;;;;2.10;1.90;;;14.50;46.90;;;;;;5087523;28;46889;-24
2022/04/01 04:26:13;;;;;;;1.88;1.63;;;14.50;46.90;;;;;;5087902;28;46908;-24
2022/04/01 04:28:40;;;;;;;1.88;1.77;;;14.50;46.90;;;;;;5087329;28;48217;-17
2022/04/01 04:31:09;;;;;;;2.05;1.73;;;14.50;46.90;;;;;;5087469;28;46921;-16
2022/04/01 04:33:38;;;;;;;1.40;1.30;;;14.50;46.90;;;;;;5087629;28;47056;-16
2022/04/01 04:36:06;;;;;;;1.88;1.77;;;14.50;46.90;;;;;;5087714;28;46881;-24
2022/04/01 04:38:37;;;;;;;1.60;1.50;;;14.50;46.90;;;;;;5087132;28;48209;-24
2022/04/01 04:41:08;;;;;;;1.83;1.73;;;14.50;46.90;;;;;;5087336;28;46915;-24
2022/04/01 04:43:38;;;;;;;1.80;1.70;;;14.50;46.80;;;;;;5087225;28;47010;-16
2022/04/01 04:46:05;;;;;;;1.90;1.65;;;14.50;46.60;;;;;;5087466;28;47022;-15
2022/04/01 04:48:33;;;;;;;1.58;1.48;;;14.50;46.60;;;;;;5086646;28;47963;-16
2022/04/01 04:51:02;;;;;;;2.08;1.75;;;14.50;46.60;;;;;;5087288;28;47185;-24
2022/04/01 04:53:30;;;;;;;1.70;1.60;;;14.50;46.60;;;;;;5086878;28;46906;-24
2022/04/01 04:55:58;;;;;;;1.88;1.70;;;14.60;46.60;;;;;;5087492;28;47091;-24
2022/04/01 04:58:25;;;;;;;1.70;1.60;;;14.50;46.50;;;;;;5087030;28;48098;-16
2022/04/01 05:00:54;;;;;;;1.80;1.70;;;14.60;46.40;;;;;;5087114;28;46909;-24
2022/04/01 05:03:31;;;;;;;1.85;1.75;;;14.60;47.10;;;;;;5086948;28;46823;-16
2022/04/01 05:05:59;;;;;;;1.63;1.52;;;14.60;46.50;;;;;;5087118;28;47191;-16
2022/04/01 05:08:33;;;;;;;1.85;1.70;;;14.50;46.50;;;;;;5086470;28;48842;-16
2022/04/01 05:11:03;;;;;;;2.10;1.83;;;14.60;46.50;;;;;;5086998;28;46847;-16
2022/04/01 05:13:33;;;;;;;2.35;1.80;;;14.60;46.50;;;;;;5086702;28;46967;-16
2022/04/01 05:16:05;;;;;;;1.98;1.88;;;14.60;46.50;;;;;;5086755;28;46932;-16
2022/04/01 05:18:37;;;;;;;1.70;1.60;;;14.50;46.50;;;;;;5086566;28;47953;-16
2022/04/01 05:21:06;;;;;;;1.80;1.70;;;14.50;47.10;;;;;;5086781;28;46905;-16
2022/04/01 05:23:39;;;;;;;2.20;1.90;;;14.50;46.50;;;;;;5086275;28;46827;-16
2022/04/01 05:26:10;;;;;;;2.03;1.90;;;14.50;46.50;;;;;;5086982;28;46877;-17
2022/04/01 05:28:40;;;;;;;2.25;2.05;;;14.50;46.50;;;;;;5086471;28;49058;-24
2022/04/01 05:31:10;;;;;;;2.10;1.92;;;14.50;46.60;;;;;;5086838;28;47012;-16
2022/04/01 05:33:43;;;;;;;1.92;1.83;;;14.50;46.60;;;;;;5085821;28;47012;-24
2022/04/01 05:36:11;;;;;;;1.80;1.70;;;14.40;46.50;;;;;;5086514;28;46927;-24
2022/04/01 05:38:38;;;;;;;1.98;1.88;;;14.50;46.50;;;;;;5085729;28;48765;-16
2022/04/01 05:41:05;;;;;;;2.28;2.03;;;14.50;46.60;;;;;;5086115;28;46866;-24
2022/04/01 05:43:32;;;;;;;2.20;2.00;;;14.50;46.60;;;;;;5085143;28;46805;-24
2022/04/01 05:45:58;;;;;;;2.35;2.00;;;14.50;46.50;;;;;;5086653;28;47305;-24
2022/04/01 05:48:26;;;;;;;2.20;2.00;;;14.50;46.60;;;;;;5085991;28;46902;-15
2022/04/01 05:50:52;;;;;;;2.20;2.00;;;14.50;46.50;;;;;;5086190;28;46916;-16
2022/04/01 05:53:21;;;;;;;2.58;2.15;;;14.50;46.50;;;;;;5085706;28;46903;-16
2022/04/01 05:55:48;;;;;;;2.60;2.40;;;14.50;46.50;;;;;;5086195;28;46992;-16
2022/04/01 05:58:15;;;;;;;3.03;2.30;;;14.50;46.40;;;;;;5085330;28;48773;-24
2022/04/01 06:00:46;;;;;;;2.55;2.15;;;14.50;46.40;;;;;;5086023;28;46898;-16
2022/04/01 06:03:44;;;;;;;2.95;2.65;;;14.40;46.30;;;;;;5085918;28;47105;-16
2022/04/01 06:06:13;;;;;;;2.90;2.60;;;14.40;46.30;;;;;;5079862;28;47048;-16
2022/04/01 06:08:48;;;;;;;2.47;2.28;;;14.40;46.10;;;;;;5085475;28;46879;-16
2022/04/01 06:11:17;;;;;;;2.75;2.47;;;14.30;46.50;;;;;;5085502;28;47612;-17
2022/04/01 06:13:50;;;;;;;2.55;2.35;;;14.30;46.60;;;;;;5085575;28;46917;-15
2022/04/01 06:16:21;;;;;;;3.30;2.92;;;14.30;46.60;;;;;;5086169;28;47206;-16
2022/04/01 06:18:52;;;;;;;2.63;2.42;;;14.30;46.60;;;;;;5085486;28;48076;-17
2022/04/01 06:21:23;;;;;;;3.10;2.80;;;14.20;46.70;;;;;;5086078;28;46885;-16
2022/04/01 06:24:10;;;;;;;4.63;2.72;;;14.20;46.80;;;;;;5085336;28;46811;-16
2022/04/01 06:26:40;;;;;;;3.15;2.85;;;14.20;47.70;;;;;;5086075;28;46827;-16
2022/04/01 06:29:15;;;;;;;4.80;2.95;;;14.20;47.50;;;;;;5085392;28;48085;-16
2022/04/01 06:31:44;;;;;;;3.15;2.72;;;14.20;47.80;;;;;;5085459;28;47104;-16
2022/04/01 06:34:15;;;;;;;3.53;3.08;;;14.30;48.10;;;;;;5085263;28;46828;-16
2022/04/01 06:36:51;;;;;;;4.70;3.28;;;14.30;48.10;;;;;;5085899;28;46913;-16
2022/04/01 06:39:22;;;;;;;5.35;3.58;;;14.30;48.40;;;;;;5085348;28;48830;-25
2022/04/01 06:41:53;;;;;;;3.88;3.40;;;14.30;48.40;;;;;;5083011;28;46940;-25
2022/04/01 06:44:19;;;;;;;3.78;3.40;;;14.30;48.50;;;;;;5085059;28;46897;-24
2022/04/01 06:46:48;;;;;;;11.02;5.63;;;14.30;48.50;;;;;;5085743;28;46885;-24
2022/04/01 06:49:14;;;;;;;8.27;6.05;;;14.30;48.20;;;;;;5085126;28;47810;-24
2022/04/01 06:51:42;;;;;;;11.75;7.18;;;14.10;47.80;;;;;;5085107;28;46831;-24
2022/04/01 06:54:12;;;;;;;8.75;7.75;;;13.90;48.60;;;;;;5085089;28;47112;-25
2022/04/01 06:56:40;;;;;;;9.27;7.68;;;13.70;48.00;;;;;;5087983;28;47035;-16
2022/04/01 06:59:07;;;;;;;10.02;8.07;;;13.60;48.30;;;;;;5088343;28;47851;-16
2022/04/01 07:01:34;;;;;;;11.23;8.68;;;13.50;48.60;;;;;;5088824;28;47305;-16
2022/04/01 07:04:01;;;;;;;12.23;9.00;;;13.30;48.80;;;;;;5088716;28;46835;-16
2022/04/01 07:06:28;;;;;;;11.30;8.88;;;13.20;49.00;;;;;;5088683;28;47322;-16
2022/04/01 07:08:56;;;;;;;9.85;8.40;;;13.10;48.80;;;;;;5088661;28;49179;-16
2022/04/01 07:11:23;;;;;;;10.37;8.73;;;13.00;48.80;;;;;;5088815;28;46827;-17
2022/04/01 07:13:53;;;;;;;11.40;9.13;;;13.00;49.30;;;;;;5088552;28;46791;-16
2022/04/01 07:16:20;;;;;;;10.67;9.13;;;12.90;49.50;;;;;;5088310;28;46895;-17
2022/04/01 07:18:47;;;;;;;9.48;7.75;;;12.80;49.80;;;;;;5088180;28;49091;-16
2022/04/01 07:21:13;;;;;;;10.33;8.80;;;12.70;49.70;;;;;;5088244;28;46801;-15
2022/04/01 07:23:40;;;;;;;10.03;7.73;;;12.70;49.80;;;;;;5088117;28;46741;-17
2022/04/01 07:26:07;;;;;;;9.77;7.77;;;12.70;49.80;;;;;;5088897;28;46840;-17
2022/04/01 07:28:34;;;;;;;8.90;7.93;;;12.70;49.70;;;;;;5088224;28;49159;-16
2022/04/01 07:32:28;;;;;;;10.43;8.27;;;12.70;49.70;;;;;;5088083;28;47432;-17
2022/04/01 07:33:49;;;;;;;8.87;7.50;;;12.70;49.80;;;;;;5088243;28;46982;-16
2022/04/01 07:36:15;;;;;;;9.10;7.37;;;12.70;49.80;;;;;;5088609;28;46864;-17
2022/04/01 07:38:42;;;;;;;10.63;8.53;;;12.70;49.70;;;;;;5087912;27;48972;-17
2022/04/01 07:41:10;;;;;;;9.90;7.90;;;12.80;49.70;;;;;;5106565;27;47012;-17
2022/04/01 07:43:37;;;;;;;10.57;8.20;;;12.70;49.70;;;;;;5108461;27;47026;-24
2022/04/01 07:46:05;;;;;;;8.73;7.83;;;12.70;49.80;;;;;;5108992;27;46897;-17
2022/04/01 07:48:32;;;;;;;10.60;9.17;;;12.70;49.80;;;;;;5108107;27;46880;-17
2022/04/01 07:50:58;;;;;;;10.50;8.43;;;12.60;49.90;;;;;;5108578;27;46961;-16
2022/04/01 07:53:25;;;;;;;9.40;8.27;;;12.60;49.90;;;;;;5107966;27;47060;-24
2022/04/01 07:55:52;;;;;;;11.80;9.00;;;12.60;50.00;;;;;;5108983;27;47063;-17
2022/04/01 07:58:19;;;;;;;12.20;9.83;;;12.50;50.70;;;;;;5104831;27;47060;-17
2022/04/01 08:00:46;;;;;;;9.93;8.77;;;12.50;50.20;;;;;;5088056;28;46967;-16
2022/04/01 08:03:14;;;;;;;9.13;8.00;;;12.40;50.20;;;;;;5087528;28;47364;-25
2022/04/01 08:05:41;;;;;;;11.17;8.57;;;12.40;50.20;;;;;;5087761;28;46851;-24
2022/04/01 08:08:08;;;;;;;13.70;9.50;;;12.40;50.20;;;;;;5086912;28;46980;-25
2022/04/01 08:10:35;;;;;;;12.60;9.20;;;12.40;50.40;;;;;;5087891;28;47075;-17
2022/04/01 08:13:02;;;;;;;9.87;8.53;;;12.40;50.60;;;;;;5087319;28;46765;-16
2022/04/01 08:15:28;;;;;;;11.80;9.67;;;12.40;50.80;;;;;;5087242;28;46941;-17
2022/04/01 08:17:55;;;;;;;12.80;9.57;;;12.30;50.90;;;;;;5086358;28;49094;-25
2022/04/01 08:20:24;;;;;;;12.33;9.27;;;12.30;50.70;;;;;;5086337;28;46958;-16
2022/04/01 08:22:51;;;;;;;12.87;9.47;;;12.20;50.60;;;;;;5086800;28;47060;-24
2022/04/01 08:25:17;;;;;;;13.93;9.43;;;12.20;50.60;;;;;;5086546;28;47000;-16
2022/04/01 08:27:44;;;;;;;12.07;9.10;;;12.10;50.70;;;;;;5086684;28;48217;-25
2022/04/01 08:30:12;;;;;;;10.97;8.80;;;12.10;50.70;;;;;;5086515;28;47034;-16
2022/04/01 08:32:39;;;;;;;13.53;9.53;;;12.10;50.80;;;;;;5087026;28;46859;-17
2022/04/01 08:35:06;;;;;;;11.47;8.27;;;12.20;50.90;;;;;;5086969;28;46921;-16
2022/04/01 08:37:35;;;;;;;11.77;9.17;;;12.20;50.70;;;;;;5086727;28;49053;-25
2022/04/01 08:40:01;;;;;;;13.07;10.07;;;12.20;50.80;;;;;;5086941;28;47430;-16
2022/04/01 08:42:28;;;;;;;11.40;9.53;;;12.20;50.70;;;;;;5087697;28;47034;-16
2022/04/01 08:44:55;;;;;;;12.00;9.37;;;12.20;50.50;;;;;;5086773;28;47425;-17
2022/04/01 08:47:21;;;;;;;11.63;8.80;;;12.30;50.60;;;;;;5085468;28;48059;-24
2022/04/01 08:49:48;;;;;;;12.83;10.67;;;12.30;50.60;;;;;;5086949;28;47381;-23
2022/04/01 08:52:16;;;;;;;13.57;10.53;;;12.30;50.80;;;;;;5087785;27;47117;-25
2022/04/01 08:54:44;;;;;;;12.93;9.97;;;12.20;50.60;;;;;;5084882;28;47125;-25
2022/04/01 08:57:11;;;;;;;12.87;9.70;;;12.10;50.80;;;;;;5087747;27;47027;-24
2022/04/01 08:59:38;;;;;;;11.83;9.00;;;12.10;50.90;;;;;;5085594;28;47243;-24
2022/04/01 09:02:05;;;;;;;12.67;9.60;;;12.20;51.00;;;;;;5085907;28;46918;-24
2022/04/01 09:04:32;;;;;;;10.43;8.77;;;12.20;50.80;;;;;;5079684;28;47010;-25
2022/04/01 09:07:11;;;;;;;11.17;9.03;;;12.20;50.90;;;;;;5066210;28;49150;-24
2022/04/01 09:09:38;;;;;;;10.67;8.50;;;12.10;50.80;;;;;;5065085;28;46804;-16
2022/04/01 09:12:08;;;;;;;10.97;8.53;;;12.10;50.80;;;;;;5083782;27;47098;-16
2022/04/01 09:14:35;;;;;;;12.50;8.37;;;12.10;51.10;;;;;;5086335;28;47058;-25
2022/04/01 09:17:03;;;;;;;10.13;8.13;;;12.10;50.80;;;;;;5085547;28;47852;-25
2022/04/01 09:19:30;;;;;;;11.20;8.50;;;12.10;50.80;;;;;;5084519;28;46863;-26
2022/04/01 09:21:56;;;;;;;10.57;8.50;;;12.10;51.10;;;;;;5081249;28;46856;-26
2022/04/01 09:24:23;;;;;;;11.00;8.10;;;12.10;51.40;;;;;;5102221;27;47361;-26
2022/04/01 09:26:54;;;;;;;10.77;8.30;;;12.00;51.30;;;;;;5092072;27;48119;-25
2022/04/01 09:29:24;;;;;;;9.00;7.70;;;11.90;51.20;;;;;;5085137;28;46962;-24
2022/04/01 09:31:52;;;;;;;10.60;7.90;;;11.90;51.30;;;;;;5097452;27;46886;-24
2022/04/01 09:34:19;;;;;;;8.43;6.70;;;12.00;51.40;;;;;;5091391;27;47167;-24
2022/04/01 09:36:46;;;;;;;9.43;7.47;;;12.00;51.20;;;;;;5102859;27;48770;-17
2022/04/01 09:39:13;;;;;;;7.83;6.70;;;12.00;51.30;;;;;;5086265;27;47214;-16
2022/04/01 09:41:42;;;;;;;9.83;7.40;;;12.00;51.10;;;;;;5087272;27;47089;-25
2022/04/01 09:44:10;;;;;;;7.57;6.00;;;12.00;51.30;;;;;;5079914;28;47357;-25
2022/04/01 09:46:45;;;;;;;8.57;6.63;;;11.90;51.00;;;;;;5082720;27;48116;-25
2022/04/01 09:49:12;;;;;;;7.97;7.10;;;11.90;51.20;;;;;;5065071;28;47383;-25
2022/04/01 09:51:42;;;;;;;8.10;5.97;;;11.90;51.20;;;;;;5077948;28;46930;-23
2022/04/01 09:54:09;;;;;;;7.03;6.33;;;11.90;51.00;;;;;;5066110;28;47248;-16
2022/04/01 09:56:36;;;;;;;7.27;6.37;;;12.00;51.20;;;;;;5065344;28;47954;-16
2022/04/01 09:59:05;;;;;;;10.10;8.30;;;12.00;51.10;;;;;;5064828;28;47130;-24
2022/04/01 10:01:32;;;;;;;7.90;6.80;;;11.90;51.30;;;;;;5077595;28;46823;-24
2022/04/01 10:04:01;;;;;;;8.23;6.80;;;11.90;51.10;;;;;;5078589;28;47380;-16
2022/04/01 10:06:28;;;;;;;7.10;5.73;;;12.00;51.00;;;;;;5071412;28;47059;-17
2022/04/01 10:08:55;;;;;;;6.70;5.80;;;12.00;51.40;;;;;;5085797;28;46912;-24
2022/04/01 10:11:22;;;;;;;9.27;5.63;;;12.00;51.40;;;;;;5076616;28;46760;-16
2022/04/01 10:13:49;;;;;;;16.37;6.77;;;12.10;52.40;;;;;;5065656;28;46821;-16
2022/04/01 10:16:15;;;;;;;13.50;6.50;;;12.30;53.10;;;;;;5067668;28;48629;-24
2022/04/01 10:18:42;;;;;;;12.27;6.03;;;12.40;53.70;;;;;;5072742;28;46997;-25
2022/04/01 10:21:13;;;;;;;6.77;5.40;;;12.50;53.50;;;;;;5078224;28;46876;-16
2022/04/01 10:23:42;;;;;;;7.13;5.00;;;12.60;53.50;;;;;;5084492;28;47244;-17
2022/04/01 10:26:12;;;;;;;9.87;5.07;;;12.70;53.40;;;;;;5082183;28;48118;-25
2022/04/01 10:28:39;;;;;;;9.50;4.87;;;12.80;53.50;;;;;;5085821;28;47130;-16
2022/04/01 10:31:06;;;;;;;12.00;5.20;;;12.80;53.30;;;;;;5084174;28;47038;-17
2022/04/01 10:33:35;;;;;;;6.47;4.27;;;12.90;53.10;;;;;;5082770;28;47126;-16
2022/04/01 10:36:16;;;;;;;10.07;4.27;;;13.00;52.70;;;;;;5081102;28;47249;-16
2022/04/01 10:38:43;;;;;;;6.27;4.27;;;13.00;52.50;;;;;;5085324;28;46992;-17
2022/04/01 10:41:12;;;;;;;7.30;4.20;;;13.00;52.20;;;;;;5084873;28;46991;-17
2022/04/01 10:43:41;;;;;;;6.67;4.20;;;13.10;52.20;;;;;;5068180;28;47256;-16
2022/04/01 10:46:08;;;;;;;7.27;4.13;;;13.10;51.90;;;;;;5065064;28;47923;-16
2022/04/01 10:51:38;;;;;;;3.47;3.00;;;13.20;51.50;;;;;;5096711;27;46924;-16
2022/04/01 10:54:06;;;;;;;4.50;3.40;;;13.20;51.10;;;;;;5072363;28;46898;-16
2022/04/01 10:56:37;;;;;;;5.77;3.67;;;13.30;51.40;;;;;;5075045;28;48795;-15
2022/04/01 10:59:23;;;;;;;4.17;3.10;;;13.30;51.30;;;;;;5071318;28;47115;-15
2022/04/01 11:02:06;;;;;;;4.73;3.00;;;13.30;51.20;;;;;;5064822;28;47053;-15
2022/04/01 11:04:35;;;;;;;4.47;2.73;;;13.30;51.00;;;;;;5063907;28;47079;-16
2022/04/01 11:07:04;;;;;;;10.27;3.37;;;13.30;51.00;;;;;;5064788;28;48035;-24
2022/04/01 11:09:41;;;;;;;4.53;2.90;;;13.30;50.90;;;;;;5064871;28;46898;-24
2022/04/01 11:12:33;;;;;;;4.43;3.20;;;13.40;50.80;;;;;;5064988;28;46824;-25
2022/04/01 11:15:17;;;;;;;5.00;2.60;;;13.40;50.80;;;;;;5064856;28;46941;-25
2022/04/01 11:18:09;;;;;;;7.30;3.00;;;13.40;50.70;;;;;;5062995;28;48792;-24
2022/04/01 11:20:39;;;;;;;5.23;2.27;;;13.40;50.60;;;;;;5064509;28;46901;-24
2022/04/01 11:23:10;;;;;;;3.60;2.80;;;13.40;50.60;;;;;;5064305;28;46851;-24
2022/04/01 11:25:57;;;;;;;3.50;2.90;;;13.40;50.40;;;;;;5064602;28;46971;-16
2022/04/01 11:28:25;;;;;;;3.07;2.50;;;13.40;50.40;;;;;;5064396;28;48031;-16
2022/04/01 11:31:08;;;;;;;5.65;2.30;;;13.40;50.30;;;;;;5064605;28;47158;-16
2022/04/01 11:33:35;;;;;;;3.13;2.23;;;13.40;50.30;;;;;;5063314;28;47030;-25
2022/04/01 11:36:02;;;;;;;3.35;2.33;;;13.40;50.30;;;;;;5063882;28;47026;-16
2022/04/01 11:38:30;;;;;;;3.37;2.20;;;13.40;50.20;;;;;;5064123;28;48657;-16
2022/04/01 11:40:59;;;;;;;5.40;2.40;;;13.40;50.10;;;;;;5064486;28;46898;-16
2022/04/01 11:43:27;;;;;;;2.88;2.00;;;13.40;50.10;;;;;;5067517;28;46894;-16
2022/04/01 11:45:57;;;;;;;2.30;2.10;;;13.40;50.10;;;;;;5067845;28;46890;-16
2022/04/01 11:48:26;;;;;;;3.97;2.43;;;13.40;50.10;;;;;;5067490;28;48003;-17
2022/04/01 11:50:55;;;;;;;2.50;2.10;;;13.40;50.00;;;;;;5067608;28;47237;-15
2022/04/01 11:53:22;;;;;;;4.10;2.50;;;13.40;50.00;;;;;;5067033;28;46903;-16
2022/04/01 11:55:50;;;;;;;3.03;1.90;;;13.40;50.00;;;;;;5067969;28;47324;-24
2022/04/01 11:58:17;;;;;;;3.50;2.00;;;13.50;50.00;;;;;;5067182;28;47824;-16
2022/04/01 12:00:44;;;;;;;3.23;1.93;;;13.50;50.00;;;;;;5067757;28;46917;-17
2022/04/01 12:03:11;;;;;;;2.20;1.93;;;13.50;49.90;;;;;;5067703;28;46915;-15
2022/04/01 12:05:39;;;;;;;2.70;1.90;;;13.50;50.00;;;;;;5067707;28;46932;-16
2022/04/01 12:10:53;;;;;;;4.93;1.75;;;13.50;49.80;;;;;;5064848;28;46857;-15
2022/04/01 12:13:20;;;;;;;2.50;1.60;;;13.60;49.80;;;;;;5067171;28;46892;-17
2022/04/01 12:15:47;;;;;;;6.07;2.07;;;13.60;49.80;;;;;;5067659;28;46931;-16
2022/04/01 12:18:15;;;;;;;8.33;2.33;;;13.60;50.00;;;;;;5067141;28;47941;-15
2022/04/01 12:20:42;;;;;;;6.63;1.90;;;13.60;50.30;;;;;;5067214;28;47497;-17
2022/04/01 12:23:09;;;;;;;3.35;1.70;;;13.70;50.30;;;;;;5066981;28;46864;-16
2022/04/01 12:25:37;;;;;;;2.83;2.10;;;13.70;50.30;;;;;;5067520;28;46982;-16
2022/04/01 12:28:07;;;;;;;2.27;1.70;;;13.70;50.30;;;;;;5067033;28;48474;-16
2022/04/01 12:30:35;;;;;;;4.37;1.80;;;13.70;50.30;;;;;;5067058;28;46985;-25
2022/04/01 12:33:03;;;;;;;6.20;1.50;;;13.70;50.20;;;;;;5066801;28;46997;-26
2022/04/01 12:35:30;;;;;;;4.47;1.70;;;13.70;50.20;;;;;;5067284;28;47065;-25
2022/04/01 12:38:07;;;;;;;3.08;1.48;;;13.80;50.20;;;;;;5066577;28;47669;-25
2022/04/01 12:40:49;;;;;;;1.90;1.40;;;13.80;50.70;;;;;;5067013;28;46978;-25
2022/04/01 12:43:40;;;;;;;3.07;1.70;;;13.80;50.10;;;;;;5062896;28;47192;-25
2022/04/01 12:46:08;;;;;;;3.67;1.90;;;13.80;50.10;;;;;;5066125;28;46897;-16
2022/04/01 12:48:48;;;;;;;1.40;1.30;;;13.80;50.00;;;;;;5065364;28;47863;-17
2022/04/01 12:51:23;;;;;;;2.65;1.48;;;13.80;50.50;;;;;;5066012;28;47439;-16
2022/04/01 12:54:00;;;;;;;3.23;1.33;;;13.80;50.00;;;;;;5066405;28;47047;-16
2022/04/01 12:56:29;;;;;;;1.52;1.20;;;13.70;49.90;;;;;;5066808;28;46930;-16
2022/04/01 12:58:58;;;;;;;4.22;1.30;;;13.80;50.00;;;;;;5066300;28;46791;-16
2022/04/01 13:01:25;;;;;;;5.63;1.52;;;13.80;50.20;;;;;;5066496;28;46907;-24
2022/04/01 13:03:51;;;;;;;2.37;1.50;;;13.70;49.70;;;;;;5066394;28;46851;-24
2022/04/01 13:06:18;;;;;;;1.70;1.60;;;13.60;49.30;;;;;;5067082;28;46874;-25